createdAt,value
2016-11-27T00:00:47.581Z,0
2016-11-27T00:01:47.438Z,0
2016-11-27T00:02:47.522Z,0
2016-11-27T00:03:49.560Z,0
2016-11-27T00:04:49.210Z,0
2016-11-27T00:05:48.985Z,0
2016-11-27T00:06:47.397Z,0
2016-11-27T00:07:47.498Z,0
2016-11-27T00:08:47.434Z,0
2016-11-27T00:09:47.524Z,0
2016-11-27T00:10:47.517Z,0
2016-11-27T00:11:47.499Z,0
2016-11-27T00:12:47.428Z,0
2016-11-27T00:13:47.498Z,0
2016-11-27T00:14:47.476Z,0
2016-11-27T00:15:47.564Z,0
2016-11-27T00:16:47.575Z,0
2016-11-27T00:17:47.496Z,0
2016-11-27T00:18:47.456Z,0
2016-11-27T00:19:47.477Z,0
2016-11-27T00:20:47.530Z,0
2016-11-27T00:21:47.501Z,0
2016-11-27T00:22:47.594Z,0
2016-11-27T00:23:47.568Z,0
2016-11-27T00:24:47.497Z,0
2016-11-27T00:25:47.489Z,0
2016-11-27T00:26:47.521Z,0
2016-11-27T00:27:47.466Z,0
2016-11-27T00:28:47.472Z,0
2016-11-27T00:29:47.557Z,0
2016-11-27T00:30:47.546Z,0
2016-11-27T00:31:47.438Z,0
2016-11-27T00:32:47.382Z,0
2016-11-27T00:33:47.395Z,0
2016-11-27T00:34:47.419Z,0
2016-11-27T00:35:47.406Z,0
2016-11-27T00:36:47.444Z,0
2016-11-27T00:37:47.403Z,0
2016-11-27T00:38:47.400Z,0
2016-11-27T00:39:47.414Z,0
2016-11-27T00:40:47.421Z,0
2016-11-27T00:41:47.431Z,0
2016-11-27T00:42:47.438Z,0
2016-11-27T00:43:47.475Z,0
2016-11-27T00:44:47.437Z,0
2016-11-27T00:45:47.419Z,0
2016-11-27T00:46:47.431Z,0
2016-11-27T00:47:47.447Z,0
2016-11-27T00:48:47.441Z,0
2016-11-27T00:49:47.419Z,0
2016-11-27T00:50:47.420Z,0
2016-11-27T00:51:47.446Z,0
2016-11-27T00:52:47.408Z,0
2016-11-27T00:53:47.439Z,0
2016-11-27T00:54:47.424Z,0
2016-11-27T00:55:47.434Z,0
2016-11-27T00:56:47.452Z,0
2016-11-27T00:57:47.429Z,0
2016-11-27T00:58:47.409Z,0
2016-11-27T00:59:47.462Z,0
2016-11-27T01:00:47.459Z,0
2016-11-27T01:01:47.475Z,0
2016-11-27T01:02:47.520Z,0
2016-11-27T01:03:47.480Z,0
2016-11-27T01:04:47.520Z,0
2016-11-27T01:05:47.453Z,0
2016-11-27T01:06:47.588Z,0
2016-11-27T01:07:47.466Z,0
2016-11-27T01:08:47.483Z,0
2016-11-27T01:09:47.473Z,0
2016-11-27T01:10:47.449Z,0
2016-11-27T01:11:47.493Z,0
2016-11-27T01:12:47.450Z,0
2016-11-27T01:13:47.453Z,0
2016-11-27T01:14:47.445Z,0
2016-11-27T01:15:47.440Z,0
2016-11-27T01:16:47.443Z,0
2016-11-27T01:17:47.430Z,0
2016-11-27T01:18:47.435Z,0
2016-11-27T01:19:47.472Z,0
2016-11-27T01:20:47.418Z,0
2016-11-27T01:21:47.444Z,0
2016-11-27T01:22:47.416Z,0
2016-11-27T01:23:47.405Z,0
2016-11-27T01:24:47.448Z,0
2016-11-27T01:25:47.435Z,0
2016-11-27T01:26:47.456Z,0
2016-11-27T01:27:47.463Z,0
2016-11-27T01:28:47.427Z,0
2016-11-27T01:29:47.459Z,0
2016-11-27T01:30:47.475Z,0
2016-11-27T01:31:47.448Z,0
2016-11-27T01:32:47.508Z,0
2016-11-27T01:33:47.464Z,0
2016-11-27T01:34:47.456Z,0
2016-11-27T01:35:47.459Z,0
2016-11-27T01:36:47.476Z,0
2016-11-27T01:37:47.445Z,0
2016-11-27T01:38:47.479Z,0
2016-11-27T01:39:47.450Z,0
2016-11-27T01:40:47.441Z,0
2016-11-27T01:41:47.492Z,0
2016-11-27T01:42:47.464Z,0
2016-11-27T01:43:47.437Z,0
2016-11-27T01:44:47.495Z,0
2016-11-27T01:45:47.492Z,0
2016-11-27T01:46:47.472Z,0
2016-11-27T01:47:47.454Z,0
2016-11-27T01:48:47.493Z,0
2016-11-27T01:49:47.444Z,0
2016-11-27T01:50:47.533Z,0
2016-11-27T01:51:47.506Z,0
2016-11-27T01:52:47.477Z,0
2016-11-27T01:53:47.468Z,0
2016-11-27T01:54:47.466Z,0
2016-11-27T01:55:47.533Z,0
2016-11-27T01:56:47.457Z,0
2016-11-27T01:57:47.480Z,0
2016-11-27T01:58:47.485Z,0
2016-11-27T01:59:47.470Z,0
2016-11-27T02:00:47.492Z,0
2016-11-27T02:01:47.515Z,0
2016-11-27T02:02:47.505Z,0
2016-11-27T02:03:47.474Z,0
2016-11-27T02:04:47.452Z,0
2016-11-27T02:05:47.477Z,0
2016-11-27T02:06:47.476Z,0
2016-11-27T02:07:47.497Z,0
2016-11-27T02:08:47.475Z,0
2016-11-27T02:09:47.497Z,0
2016-11-27T02:10:47.488Z,0
2016-11-27T02:11:47.496Z,0
2016-11-27T02:12:47.475Z,0
2016-11-27T02:13:47.453Z,0
2016-11-27T02:14:47.473Z,0
2016-11-27T02:15:47.481Z,0
2016-11-27T02:16:47.468Z,0
2016-11-27T02:17:47.496Z,0
2016-11-27T02:18:47.507Z,0
2016-11-27T02:19:47.513Z,0
2016-11-27T02:20:47.523Z,0
2016-11-27T02:21:47.534Z,0
2016-11-27T02:22:47.485Z,0
2016-11-27T02:23:47.501Z,0
2016-11-27T02:24:47.527Z,0
2016-11-27T02:25:47.573Z,0
2016-11-27T02:26:47.577Z,0
2016-11-27T02:27:47.538Z,0
2016-11-27T02:28:47.536Z,0
2016-11-27T02:29:47.506Z,0
2016-11-27T02:30:47.494Z,0
2016-11-27T02:31:47.477Z,0
2016-11-27T02:32:47.490Z,0
2016-11-27T02:33:47.487Z,0
2016-11-27T02:34:47.518Z,0
2016-11-27T02:35:47.490Z,0
2016-11-27T02:36:47.509Z,0
2016-11-27T02:37:47.490Z,0
2016-11-27T02:38:47.509Z,0
2016-11-27T02:39:47.501Z,0
2016-11-27T02:40:47.539Z,0
2016-11-27T02:41:47.524Z,0
2016-11-27T02:42:47.506Z,0
2016-11-27T02:43:47.495Z,0
2016-11-27T02:44:47.554Z,0
2016-11-27T02:45:47.558Z,0
2016-11-27T02:46:47.549Z,0
2016-11-27T02:47:47.523Z,0
2016-11-27T02:48:47.548Z,0
2016-11-27T02:49:47.504Z,0
2016-11-27T02:50:47.510Z,0
2016-11-27T02:51:47.503Z,0
2016-11-27T02:52:47.504Z,0
2016-11-27T02:53:47.524Z,0
2016-11-27T02:54:47.508Z,0
2016-11-27T02:55:47.542Z,0
2016-11-27T02:56:47.526Z,0
2016-11-27T02:57:47.490Z,0
2016-11-27T02:58:47.487Z,0
2016-11-27T02:59:47.497Z,0
2016-11-27T03:00:47.536Z,0
2016-11-27T03:01:47.523Z,0
2016-11-27T03:02:47.539Z,0
2016-11-27T03:03:47.514Z,0
2016-11-27T03:04:47.532Z,0
2016-11-27T03:05:47.498Z,0
2016-11-27T03:06:47.532Z,0
2016-11-27T03:07:47.532Z,0
2016-11-27T03:08:47.495Z,0
2016-11-27T03:09:47.574Z,0
2016-11-27T03:10:47.549Z,0
2016-11-27T03:11:47.558Z,0
2016-11-27T03:12:47.530Z,0
2016-11-27T03:13:47.513Z,0
2016-11-27T03:14:47.506Z,0
2016-11-27T03:15:47.554Z,0
2016-11-27T03:16:47.566Z,0
2016-11-27T03:17:47.543Z,0
2016-11-27T03:18:47.533Z,0
2016-11-27T03:19:47.524Z,0
2016-11-27T03:20:47.551Z,0
2016-11-27T03:21:47.588Z,0
2016-11-27T03:22:47.550Z,0
2016-11-27T03:23:47.538Z,0
2016-11-27T03:24:47.556Z,0
2016-11-27T03:25:47.554Z,0
2016-11-27T03:26:47.553Z,0
2016-11-27T03:27:47.551Z,0
2016-11-27T03:28:47.575Z,0
2016-11-27T03:29:47.563Z,0
2016-11-27T03:30:47.530Z,0
2016-11-27T03:31:47.537Z,0
2016-11-27T03:32:47.525Z,0
2016-11-27T03:33:47.539Z,0
2016-11-27T03:34:47.515Z,0
2016-11-27T03:35:47.550Z,0
2016-11-27T03:36:47.575Z,0
2016-11-27T03:37:47.540Z,0
2016-11-27T03:38:47.505Z,0
2016-11-27T03:39:47.525Z,0
2016-11-27T03:40:47.531Z,0
2016-11-27T03:41:47.582Z,0
2016-11-27T03:42:47.519Z,0
2016-11-27T03:43:47.571Z,0
2016-11-27T03:44:47.555Z,0
2016-11-27T03:45:47.547Z,0
2016-11-27T03:46:47.634Z,0
2016-11-27T03:47:47.544Z,0
2016-11-27T03:48:47.580Z,0
2016-11-27T03:49:47.551Z,0
2016-11-27T03:50:47.544Z,0
2016-11-27T03:51:47.568Z,0
2016-11-27T03:52:47.606Z,0
2016-11-27T03:53:47.529Z,0
2016-11-27T03:54:47.541Z,0
2016-11-27T03:55:47.512Z,0
2016-11-27T03:56:47.567Z,0
2016-11-27T03:57:47.535Z,0
2016-11-27T03:58:47.577Z,0
2016-11-27T03:59:47.561Z,0
2016-11-27T04:00:47.543Z,0
2016-11-27T04:01:47.564Z,0
2016-11-27T04:02:47.551Z,0
2016-11-27T04:03:47.545Z,0
2016-11-27T04:04:47.554Z,0
2016-11-27T04:05:47.543Z,0
2016-11-27T04:06:47.574Z,0
2016-11-27T04:07:47.525Z,0
2016-11-27T04:08:47.561Z,0
2016-11-27T04:09:47.555Z,0
2016-11-27T04:10:47.564Z,0
2016-11-27T04:11:47.539Z,0
2016-11-27T04:12:47.547Z,0
2016-11-27T04:13:47.578Z,0
2016-11-27T04:14:47.543Z,0
2016-11-27T04:15:47.553Z,0
2016-11-27T04:16:47.557Z,0
2016-11-27T04:17:47.528Z,0
2016-11-27T04:18:47.548Z,0
2016-11-27T04:19:47.554Z,0
2016-11-27T04:20:47.539Z,0
2016-11-27T04:21:47.587Z,0
2016-11-27T04:22:47.544Z,0
2016-11-27T04:23:47.567Z,0
2016-11-27T04:24:47.536Z,0
2016-11-27T04:25:47.561Z,0
2016-11-27T04:26:47.598Z,0
2016-11-27T04:27:47.549Z,0
2016-11-27T04:28:47.541Z,0
2016-11-27T04:29:47.554Z,0
2016-11-27T04:30:47.544Z,0
2016-11-27T04:31:47.591Z,0
2016-11-27T04:32:47.563Z,0
2016-11-27T04:33:47.599Z,0
2016-11-27T04:34:47.576Z,0
2016-11-27T04:35:47.618Z,0
2016-11-27T04:36:47.635Z,0
2016-11-27T04:37:47.608Z,0
2016-11-27T04:38:47.667Z,0
2016-11-27T04:39:47.619Z,0
2016-11-27T04:40:47.586Z,0
2016-11-27T04:41:47.582Z,0
2016-11-27T04:42:47.558Z,0
2016-11-27T04:43:47.595Z,0
2016-11-27T04:44:47.570Z,0
2016-11-27T04:45:47.589Z,0
2016-11-27T04:46:47.609Z,0
2016-11-27T04:47:47.588Z,0
2016-11-27T04:48:47.600Z,0
2016-11-27T04:49:47.591Z,0
2016-11-27T04:50:47.607Z,0
2016-11-27T04:51:47.636Z,0
2016-11-27T04:52:47.637Z,0
2016-11-27T04:53:47.597Z,0
2016-11-27T04:54:47.632Z,0
2016-11-27T04:55:47.590Z,0
2016-11-27T04:56:47.654Z,0
2016-11-27T04:57:47.616Z,0
2016-11-27T04:58:47.609Z,0
2016-11-27T04:59:47.631Z,0
2016-11-27T05:00:47.635Z,0
2016-11-27T05:01:47.594Z,0
2016-11-27T05:02:47.670Z,0
2016-11-27T05:03:47.617Z,0
2016-11-27T05:04:47.594Z,0
2016-11-27T05:05:47.614Z,0
2016-11-27T05:06:47.621Z,0
2016-11-27T05:07:47.578Z,0
2016-11-27T05:08:47.638Z,0
2016-11-27T05:09:47.616Z,0
2016-11-27T05:10:47.606Z,0
2016-11-27T05:11:47.638Z,0
2016-11-27T05:12:47.586Z,0
2016-11-27T05:13:47.604Z,0
2016-11-27T05:14:47.628Z,0
2016-11-27T05:15:47.599Z,0
2016-11-27T05:16:47.593Z,0
2016-11-27T05:17:47.607Z,0
2016-11-27T05:18:47.607Z,0
2016-11-27T05:19:47.659Z,0
2016-11-27T05:20:47.605Z,0
2016-11-27T05:21:47.633Z,0
2016-11-27T05:22:47.589Z,0
2016-11-27T05:23:47.613Z,0
2016-11-27T05:24:47.599Z,0
2016-11-27T05:25:47.637Z,0
2016-11-27T05:26:47.595Z,0
2016-11-27T05:27:47.592Z,0
2016-11-27T05:28:47.582Z,0
2016-11-27T05:29:47.589Z,0
2016-11-27T05:30:47.633Z,0
2016-11-27T05:31:47.614Z,0
2016-11-27T05:32:47.631Z,0
2016-11-27T05:33:47.611Z,0
2016-11-27T05:34:47.608Z,0
2016-11-27T05:35:47.602Z,0
2016-11-27T05:36:47.625Z,0
2016-11-27T05:37:47.611Z,0
2016-11-27T05:38:47.631Z,0
2016-11-27T05:39:47.913Z,0
2016-11-27T05:40:47.629Z,0
2016-11-27T05:41:47.658Z,0
2016-11-27T05:42:47.646Z,0
2016-11-27T05:43:47.636Z,0
2016-11-27T05:44:47.636Z,0
2016-11-27T05:45:47.598Z,0
2016-11-27T05:46:47.594Z,0
2016-11-27T05:47:47.600Z,0
2016-11-27T05:48:47.620Z,0
2016-11-27T05:49:47.627Z,0
2016-11-27T05:50:47.595Z,0
2016-11-27T05:51:47.621Z,0
2016-11-27T05:52:47.617Z,0
2016-11-27T05:53:47.631Z,0
2016-11-27T05:54:47.615Z,0
2016-11-27T05:55:47.618Z,0
2016-11-27T05:56:47.635Z,0
2016-11-27T05:57:47.622Z,0
2016-11-27T05:58:47.648Z,0
2016-11-27T05:59:47.907Z,0
2016-11-27T06:00:47.685Z,0
2016-11-27T06:01:47.691Z,0
2016-11-27T06:02:47.632Z,0
2016-11-27T06:03:47.624Z,0
2016-11-27T06:04:47.684Z,0
2016-11-27T06:05:47.653Z,0
2016-11-27T06:06:47.698Z,0
2016-11-27T06:07:47.664Z,0
2016-11-27T06:08:47.647Z,0
2016-11-27T06:09:47.646Z,0
2016-11-27T06:10:47.638Z,0
2016-11-27T06:11:47.703Z,0
2016-11-27T06:12:47.631Z,0
2016-11-27T06:13:47.639Z,0
2016-11-27T06:14:47.630Z,0
2016-11-27T06:15:47.651Z,0
2016-11-27T06:16:47.674Z,0
2016-11-27T06:17:47.644Z,0
2016-11-27T06:18:47.671Z,0
2016-11-27T06:19:47.718Z,0
2016-11-27T06:20:47.625Z,0
2016-11-27T06:21:47.741Z,0
2016-11-27T06:22:47.665Z,0
2016-11-27T06:23:47.664Z,0
2016-11-27T06:24:47.649Z,0
2016-11-27T06:25:47.646Z,0
2016-11-27T06:26:47.648Z,0
2016-11-27T06:27:47.644Z,0
2016-11-27T06:28:47.668Z,0
2016-11-27T06:29:47.637Z,0
2016-11-27T06:30:47.703Z,0
2016-11-27T06:31:47.667Z,0
2016-11-27T06:32:47.649Z,0
2016-11-27T06:33:47.695Z,0
2016-11-27T06:34:47.687Z,0
2016-11-27T06:35:47.714Z,0
2016-11-27T06:36:47.731Z,0
2016-11-27T06:37:47.717Z,0
2016-11-27T06:38:47.714Z,4
2016-11-27T06:39:47.720Z,4
2016-11-27T06:40:47.687Z,0
2016-11-27T06:41:47.780Z,4
2016-11-27T06:42:47.725Z,4
2016-11-27T06:43:47.658Z,4
2016-11-27T06:44:47.701Z,4
2016-11-27T06:45:47.764Z,4
2016-11-27T06:46:47.767Z,8
2016-11-27T06:47:47.722Z,8
2016-11-27T06:48:47.666Z,8
2016-11-27T06:49:47.655Z,8
2016-11-27T06:50:47.733Z,12
2016-11-27T06:51:47.706Z,12
2016-11-27T06:52:47.684Z,16
2016-11-27T06:53:47.697Z,16
2016-11-27T06:54:47.681Z,20
2016-11-27T06:55:47.711Z,24
2016-11-27T06:56:47.694Z,28
2016-11-27T06:57:47.678Z,32
2016-11-27T06:58:47.683Z,40
2016-11-27T06:59:47.700Z,44
2016-11-27T07:00:47.751Z,48
2016-11-27T07:01:47.739Z,56
2016-11-27T07:02:47.702Z,64
2016-11-27T07:03:47.684Z,68
2016-11-27T07:04:47.667Z,68
2016-11-27T07:05:47.661Z,76
2016-11-27T07:06:47.680Z,88
2016-11-27T07:07:47.707Z,100
2016-11-27T07:08:47.673Z,112
2016-11-27T07:09:47.656Z,120
2016-11-27T07:10:47.681Z,136
2016-11-27T07:11:47.724Z,160
2016-11-27T07:12:47.715Z,200
2016-11-27T07:13:47.691Z,232
2016-11-27T07:14:47.697Z,252
2016-11-27T07:15:47.684Z,280
2016-11-27T07:16:47.709Z,312
2016-11-27T07:17:47.669Z,336
2016-11-27T07:18:47.703Z,364
2016-11-27T07:19:47.697Z,376
2016-11-27T07:20:47.716Z,392
2016-11-27T07:21:47.727Z,416
2016-11-27T07:22:47.695Z,456
2016-11-27T07:23:47.717Z,472
2016-11-27T07:24:47.694Z,468
2016-11-27T07:25:47.704Z,484
2016-11-27T07:26:47.733Z,480
2016-11-27T07:27:47.701Z,444
2016-11-27T07:28:47.745Z,420
2016-11-27T07:29:47.746Z,424
2016-11-27T07:30:47.698Z,412
2016-11-27T07:31:47.740Z,416
2016-11-27T07:32:47.691Z,436
2016-11-27T07:33:47.734Z,452
2016-11-27T07:34:47.762Z,480
2016-11-27T07:35:47.793Z,492
2016-11-27T07:36:47.784Z,564
2016-11-27T07:37:47.767Z,636
2016-11-27T07:38:47.743Z,664
2016-11-27T07:39:47.732Z,712
2016-11-27T07:40:47.752Z,760
2016-11-27T07:41:47.797Z,824
2016-11-27T07:42:47.723Z,916
2016-11-27T07:43:47.778Z,988
2016-11-27T07:44:47.753Z,1116
2016-11-27T07:45:47.791Z,1240
2016-11-27T07:46:47.743Z,1328
2016-11-27T07:47:47.716Z,1348
2016-11-27T07:48:47.699Z,1404
2016-11-27T07:49:47.705Z,1444
2016-11-27T07:50:47.697Z,1456
2016-11-27T07:51:47.749Z,1448
2016-11-27T07:52:47.736Z,1336
2016-11-27T07:53:47.686Z,1328
2016-11-27T07:54:47.678Z,1428
2016-11-27T07:55:47.730Z,1552
2016-11-27T07:56:47.708Z,1636
2016-11-27T07:57:47.727Z,1640
2016-11-27T07:58:47.714Z,1644
2016-11-27T07:59:47.736Z,1704
2016-11-27T08:00:47.718Z,1828
2016-11-27T08:01:47.738Z,1900
2016-11-27T08:02:47.740Z,1868
2016-11-27T08:03:47.742Z,1856
2016-11-27T08:04:47.745Z,1912
2016-11-27T08:05:47.746Z,2008
2016-11-27T08:06:47.780Z,2140
2016-11-27T08:07:47.730Z,2232
2016-11-27T08:08:47.716Z,2304
2016-11-27T08:09:47.723Z,2416
2016-11-27T08:10:47.711Z,2472
2016-11-27T08:11:47.737Z,2460
2016-11-27T08:12:47.729Z,2460
2016-11-27T08:13:47.720Z,2256
2016-11-27T08:14:47.714Z,2152
2016-11-27T08:15:47.720Z,2180
2016-11-27T08:16:47.748Z,2220
2016-11-27T08:17:47.821Z,2276
2016-11-27T08:18:47.725Z,2312
2016-11-27T08:19:47.737Z,2388
2016-11-27T08:20:47.737Z,2504
2016-11-27T08:21:47.759Z,2680
2016-11-27T08:22:47.719Z,2908
2016-11-27T08:23:47.766Z,3012
2016-11-27T08:24:47.788Z,3068
2016-11-27T08:25:47.731Z,2984
2016-11-27T08:26:47.761Z,2892
2016-11-27T08:27:47.733Z,2772
2016-11-27T08:28:47.746Z,2756
2016-11-27T08:29:47.727Z,2856
2016-11-27T08:30:47.726Z,2924
2016-11-27T08:31:47.803Z,3084
2016-11-27T08:32:47.836Z,3224
2016-11-27T08:33:47.746Z,3380
2016-11-27T08:34:47.751Z,3220
2016-11-27T08:35:47.773Z,3184
2016-11-27T08:36:47.789Z,3288
2016-11-27T08:37:47.828Z,3400
2016-11-27T08:38:47.810Z,3276
2016-11-27T08:39:47.767Z,3184
2016-11-27T08:40:47.792Z,3164
2016-11-27T08:41:47.849Z,2984
2016-11-27T08:42:47.782Z,3008
2016-11-27T08:43:47.750Z,3088
2016-11-27T08:44:47.805Z,3188
2016-11-27T08:45:47.764Z,3404
2016-11-27T08:46:47.814Z,3496
2016-11-27T08:47:47.788Z,3748
2016-11-27T08:48:47.782Z,4184
2016-11-27T08:49:47.763Z,4272
2016-11-27T08:50:47.776Z,4036
2016-11-27T08:51:47.742Z,4100
2016-11-27T08:52:47.751Z,4088
2016-11-27T08:53:47.747Z,4056
2016-11-27T08:54:47.776Z,4184
2016-11-27T08:55:47.790Z,4280
2016-11-27T08:56:47.779Z,4052
2016-11-27T08:57:47.746Z,3680
2016-11-27T08:58:49.843Z,3480
2016-11-27T08:59:47.768Z,3428
2016-11-27T09:00:47.941Z,3492
2016-11-27T09:01:47.818Z,3576
2016-11-27T09:02:47.856Z,4020
2016-11-27T09:03:47.757Z,4308
2016-11-27T09:04:47.757Z,4456
2016-11-27T09:05:47.787Z,4504
2016-11-27T09:06:48.219Z,4504
2016-11-27T09:07:48.467Z,4316
2016-11-27T09:08:47.777Z,4512
2016-11-27T09:09:47.959Z,4692
2016-11-27T09:10:47.796Z,4964
2016-11-27T09:11:47.764Z,5168
2016-11-27T09:12:47.757Z,5184
2016-11-27T09:13:47.767Z,5108
2016-11-27T09:14:47.805Z,5064
2016-11-27T09:15:47.803Z,4960
2016-11-27T09:16:48.423Z,4940
2016-11-27T09:17:47.835Z,4816
2016-11-27T09:18:49.415Z,4712
2016-11-27T09:19:48.044Z,4628
2016-11-27T09:20:47.755Z,4512
2016-11-27T09:21:47.796Z,4432
2016-11-27T09:22:47.823Z,4440
2016-11-27T09:23:47.789Z,4760
2016-11-27T09:24:47.787Z,4896
2016-11-27T09:25:47.781Z,4896
2016-11-27T09:26:47.828Z,4792
2016-11-27T09:27:47.788Z,4628
2016-11-27T09:28:47.783Z,4516
2016-11-27T09:29:47.809Z,4468
2016-11-27T09:30:47.836Z,4448
2016-11-27T09:31:47.800Z,4316
2016-11-27T09:32:47.864Z,4476
2016-11-27T09:33:47.976Z,4644
2016-11-27T09:34:47.840Z,4296
2016-11-27T09:35:47.804Z,3596
2016-11-27T09:36:47.826Z,3276
2016-11-27T09:37:48.197Z,3356
2016-11-27T09:38:47.798Z,4176
2016-11-27T09:39:47.801Z,4728
2016-11-27T09:40:47.781Z,4844
2016-11-27T09:41:47.816Z,4340
2016-11-27T09:42:49.317Z,4096
2016-11-27T09:43:47.879Z,3932
2016-11-27T09:44:47.832Z,3712
2016-11-27T09:45:47.770Z,3660
2016-11-27T09:46:49.933Z,3592
2016-11-27T09:47:48.327Z,3428
2016-11-27T09:48:47.783Z,3740
2016-11-27T09:49:47.785Z,4360
2016-11-27T09:50:47.970Z,4420
2016-11-27T09:51:48.474Z,4356
2016-11-27T09:52:47.804Z,4244
2016-11-27T09:53:47.785Z,4424
2016-11-27T09:54:47.792Z,4568
2016-11-27T09:55:47.842Z,4792
2016-11-27T09:56:47.817Z,5048
2016-11-27T09:57:47.796Z,4616
2016-11-27T09:58:48.067Z,4300
2016-11-27T09:59:47.843Z,3968
2016-11-27T10:00:47.824Z,3624
2016-11-27T10:01:47.838Z,3488
2016-11-27T10:02:47.833Z,3356
2016-11-27T10:03:48.119Z,3376
2016-11-27T10:04:47.809Z,3596
2016-11-27T10:05:47.918Z,4196
2016-11-27T10:06:47.859Z,5000
2016-11-27T10:07:47.866Z,5336
2016-11-27T10:08:47.829Z,5268
2016-11-27T10:09:54.366Z,5892
2016-11-27T10:10:52.874Z,6208
2016-11-27T10:11:56.496Z,5708
2016-11-27T10:12:54.376Z,5344
2016-11-27T10:13:50.906Z,4444
2016-11-27T10:14:47.853Z,4448
2016-11-27T10:15:48.350Z,4948
2016-11-27T10:16:48.099Z,4488
2016-11-27T10:17:55.882Z,4272
2016-11-27T10:18:57.387Z,3992
2016-11-27T10:19:56.666Z,3944
2016-11-27T10:20:59.207Z,3784
2016-11-27T10:21:57.334Z,3728
2016-11-27T10:22:56.951Z,3876
2016-11-27T10:23:57.471Z,3864
2016-11-27T10:25:01.860Z,4120
2016-11-27T10:25:56.935Z,4584
2016-11-27T10:26:56.938Z,5192
2016-11-27T10:27:55.694Z,5404
2016-11-27T10:28:58.452Z,5396
2016-11-27T10:29:57.736Z,5604
2016-11-27T10:30:57.490Z,5728
2016-11-27T10:31:56.941Z,5508
2016-11-27T10:32:57.554Z,5276
2016-11-27T10:33:56.396Z,5176
2016-11-27T10:34:57.729Z,5344
2016-11-27T10:35:56.921Z,5612
2016-11-27T10:36:57.046Z,5636
2016-11-27T10:37:56.978Z,5116
2016-11-27T10:38:58.412Z,4400
2016-11-27T10:39:57.712Z,3964
2016-11-27T10:40:47.940Z,3444
2016-11-27T10:41:48.116Z,3128
2016-11-27T10:42:47.896Z,3016
2016-11-27T10:43:47.978Z,2908
2016-11-27T10:44:48.087Z,2888
2016-11-27T10:45:47.892Z,2928
2016-11-27T10:46:47.878Z,2988
2016-11-27T10:47:47.937Z,3076
2016-11-27T10:48:47.947Z,3160
2016-11-27T10:49:47.829Z,3208
2016-11-27T10:50:47.886Z,3168
2016-11-27T10:51:48.219Z,3248
2016-11-27T10:52:48.462Z,3344
2016-11-27T10:53:47.876Z,3416
2016-11-27T10:54:47.899Z,3460
2016-11-27T10:55:49.102Z,3644
2016-11-27T10:56:47.944Z,4016
2016-11-27T10:57:51.797Z,4644
2016-11-27T10:58:47.914Z,5552
2016-11-27T10:59:48.247Z,6280
2016-11-27T11:00:48.482Z,5608
2016-11-27T11:01:48.203Z,4872
2016-11-27T11:02:47.906Z,4516
2016-11-27T11:03:47.925Z,4448
2016-11-27T11:04:47.896Z,4584
2016-11-27T11:05:47.913Z,5120
2016-11-27T11:06:47.907Z,5916
2016-11-27T11:07:47.912Z,6572
2016-11-27T11:08:47.948Z,6820
2016-11-27T11:09:47.864Z,6472
2016-11-27T11:10:47.867Z,6020
2016-11-27T11:11:47.945Z,5920
2016-11-27T11:12:48.732Z,6092
2016-11-27T11:13:47.949Z,6512
2016-11-27T11:14:47.887Z,5952
2016-11-27T11:15:47.902Z,4688
2016-11-27T11:16:49.151Z,4300
2016-11-27T11:17:47.915Z,4660
2016-11-27T11:18:48.213Z,4980
2016-11-27T11:19:47.894Z,5428
2016-11-27T11:20:48.076Z,5588
2016-11-27T11:21:47.873Z,5296
2016-11-27T11:22:47.887Z,5656
2016-11-27T11:23:47.922Z,5796
2016-11-27T11:24:48.050Z,5644
2016-11-27T11:25:47.896Z,5484
2016-11-27T11:26:47.960Z,5296
2016-11-27T11:27:47.976Z,5196
2016-11-27T11:28:47.959Z,4996
2016-11-27T11:29:47.957Z,4300
2016-11-27T11:30:48.441Z,3772
2016-11-27T11:31:47.949Z,3568
2016-11-27T11:32:48.095Z,3480
2016-11-27T11:33:47.906Z,3360
2016-11-27T11:34:47.958Z,3328
2016-11-27T11:35:47.893Z,3464
2016-11-27T11:36:47.863Z,3784
2016-11-27T11:37:51.538Z,4184
2016-11-27T11:38:47.882Z,4532
2016-11-27T11:39:47.882Z,4552
2016-11-27T11:40:48.450Z,4776
2016-11-27T11:41:47.951Z,4712
2016-11-27T11:42:47.925Z,4560
2016-11-27T11:43:48.138Z,4564
2016-11-27T11:44:47.930Z,4500
2016-11-27T11:45:48.061Z,4452
2016-11-27T11:46:48.210Z,4268
2016-11-27T11:47:47.938Z,4072
2016-11-27T11:48:47.893Z,3860
2016-11-27T11:49:47.914Z,3692
2016-11-27T11:50:47.894Z,3464
2016-11-27T11:51:48.476Z,3352
2016-11-27T11:52:47.971Z,3360
2016-11-27T11:53:47.933Z,3368
2016-11-27T11:54:47.888Z,3344
2016-11-27T11:55:47.955Z,3276
2016-11-27T11:56:48.271Z,3248
2016-11-27T11:57:48.098Z,3276
2016-11-27T11:58:47.899Z,3348
2016-11-27T11:59:47.915Z,3268
2016-11-27T12:00:47.887Z,3240
2016-11-27T12:01:47.967Z,3196
2016-11-27T12:02:47.901Z,3172
2016-11-27T12:03:48.127Z,3220
2016-11-27T12:04:47.957Z,3272
2016-11-27T12:05:47.933Z,3324
2016-11-27T12:06:47.931Z,3288
2016-11-27T12:07:48.915Z,3248
2016-11-27T12:08:47.903Z,3192
2016-11-27T12:09:47.910Z,3164
2016-11-27T12:10:48.597Z,3128
2016-11-27T12:11:47.884Z,3088
2016-11-27T12:12:48.008Z,3092
2016-11-27T12:13:48.637Z,3104
2016-11-27T12:14:47.928Z,3100
2016-11-27T12:15:47.951Z,3096
2016-11-27T12:16:47.927Z,3072
2016-11-27T12:17:47.932Z,3016
2016-11-27T12:18:47.934Z,2968
2016-11-27T12:19:49.614Z,2952
2016-11-27T12:20:47.926Z,2940
2016-11-27T12:21:47.903Z,2932
2016-11-27T12:22:47.925Z,2924
2016-11-27T12:23:47.937Z,2908
2016-11-27T12:24:48.656Z,2880
2016-11-27T12:25:47.988Z,2884
2016-11-27T12:26:47.925Z,2884
2016-11-27T12:27:47.947Z,2868
2016-11-27T12:28:48.008Z,2856
2016-11-27T12:29:47.977Z,2856
2016-11-27T12:30:47.989Z,2872
2016-11-27T12:31:47.982Z,2884
2016-11-27T12:32:50.667Z,2884
2016-11-27T12:33:48.017Z,2876
2016-11-27T12:34:48.006Z,2864
2016-11-27T12:35:51.833Z,2872
2016-11-27T12:36:51.206Z,2856
2016-11-27T12:37:48.323Z,2848
2016-11-27T12:38:48.382Z,2836
2016-11-27T12:39:47.979Z,2828
2016-11-27T12:40:47.928Z,2812
2016-11-27T12:41:47.965Z,2840
2016-11-27T12:42:47.999Z,2848
2016-11-27T12:43:48.660Z,2864
2016-11-27T12:44:48.603Z,2836
2016-11-27T12:45:48.020Z,2880
2016-11-27T12:46:48.300Z,2908
2016-11-27T12:47:47.966Z,2924
2016-11-27T12:48:47.938Z,2944
2016-11-27T12:49:48.159Z,2948
2016-11-27T12:50:47.966Z,2952
2016-11-27T12:51:47.931Z,2956
2016-11-27T12:52:47.937Z,2960
2016-11-27T12:53:48.382Z,2968
2016-11-27T12:54:47.954Z,2980
2016-11-27T12:55:48.025Z,2992
2016-11-27T12:56:57.965Z,3024
2016-11-27T12:57:48.309Z,3032
2016-11-27T12:58:48.331Z,3116
2016-11-27T12:59:47.961Z,3316
2016-11-27T13:00:47.935Z,3576
2016-11-27T13:01:47.945Z,3648
2016-11-27T13:02:47.961Z,3308
2016-11-27T13:03:47.954Z,3280
2016-11-27T13:04:48.062Z,3348
2016-11-27T13:05:48.069Z,3424
2016-11-27T13:06:47.963Z,3320
2016-11-27T13:07:48.213Z,3200
2016-11-27T13:08:48.031Z,3212
2016-11-27T13:09:47.966Z,3244
2016-11-27T13:10:49.100Z,3304
2016-11-27T13:11:48.312Z,3396
2016-11-27T13:12:48.153Z,3340
2016-11-27T13:13:47.997Z,3356
2016-11-27T13:14:48.843Z,3308
2016-11-27T13:15:48.761Z,3328
2016-11-27T13:16:48.191Z,3300
2016-11-27T13:17:47.989Z,3328
2016-11-27T13:18:49.513Z,3312
2016-11-27T13:19:50.028Z,3448
2016-11-27T13:20:48.011Z,3564
2016-11-27T13:21:47.984Z,3548
2016-11-27T13:22:48.520Z,3984
2016-11-27T13:23:48.068Z,4136
2016-11-27T13:24:47.985Z,4232
2016-11-27T13:25:48.655Z,3984
2016-11-27T13:27:37.451Z,5172
2016-11-27T13:28:36.964Z,5352
2016-11-27T13:29:36.905Z,4996
2016-11-27T13:30:37.180Z,4844
2016-11-27T13:31:36.966Z,4820
2016-11-27T13:32:36.967Z,5312
2016-11-27T13:33:38.906Z,4860
2016-11-27T13:34:36.904Z,5124
2016-11-27T13:35:36.970Z,5344
2016-11-27T13:36:36.915Z,5348
2016-11-27T13:37:37.381Z,5480
2016-11-27T13:38:37.052Z,5288
2016-11-27T13:39:36.959Z,5388
2016-11-27T13:40:37.092Z,3400
2016-11-27T13:41:37.446Z,3120
2016-11-27T13:42:36.920Z,2996
2016-11-27T13:43:37.386Z,3020
2016-11-27T13:44:37.599Z,2716
2016-11-27T13:45:36.885Z,2736
2016-11-27T13:46:36.889Z,2816
2016-11-27T13:47:37.352Z,2820
2016-11-27T13:48:37.113Z,2804
2016-11-27T13:49:37.476Z,2756
2016-11-27T13:50:37.034Z,2776
2016-11-27T13:51:37.663Z,2920
2016-11-27T13:52:36.905Z,2924
2016-11-27T13:53:36.977Z,2828
2016-11-27T13:54:37.785Z,2772
2016-11-27T13:55:36.908Z,2704
2016-11-27T13:56:36.904Z,2632
2016-11-27T13:57:37.186Z,2548
2016-11-27T13:58:36.965Z,2544
2016-11-27T13:59:37.339Z,2468
2016-11-27T14:00:36.969Z,2424
2016-11-27T14:01:36.939Z,2400
2016-11-27T14:02:36.899Z,2348